^^
Meteo Knjazevac Station Historical Data
Daily Summary for August 06, 2022 Units:  Both    English   Metric
Daily Weekly Monthly Yearly Custom
  High: Low: Average:
Temperature: 96.7 °F /  35.9 °C 57.1 °F /  13.9 °C 77.9 °F /  25.5 °C
Dew Point: 66.3 °F /  19.1 °C 54 °F /  12.2 °C 60.2 °F /  15.7 °C
Humidity: 90% 33.3% 59%
Wind Speed: 11.9mph /  19.2km/h - 4.2mph /  6.8km/h
Wind Gust: 14mph /  22.5km/h - -
Wind- - SSW
Pressure: 30.00 in /  1015.8 hPa 29.91 in /  1012.8 hPa -
Precipitation: 0.00 in /  0 mm    
Historical Graphs
 
 
Tabular Data for August 06, 2022
Time Temperature Dew Point Pressure Wind Wind Speed Wind Gust Humidity Rainfall Rate (Hourly) solar Conditions
00:04 66 °F /  18.9 °C 57.2 °F /  14 °C 29.99in /  1015.5hPa WSW 0.4mph /  0.6km/h 0.4mph /  0.6km/h 73.3% 0.00in /  0mm 0 W/m2
00:09 65.7 °F /  18.7 °C 57.2 °F /  14 °C 29.98in /  1015.1hPa West 1.2mph /  1.9km/h 1mph /  1.6km/h 74% 0.00in /  0mm 0 W/m2
00:14 65.5 °F /  18.6 °C 57 °F /  13.9 °C 29.98in /  1015.1hPa West 1mph /  1.6km/h 0.2mph /  0.3km/h 74% 0.00in /  0mm 0 W/m2
00:19 65.3 °F /  18.5 °C 56.9 °F /  13.8 °C 29.99in /  1015.5hPa NW 2.2mph /  3.5km/h 2mph /  3.2km/h 74.4% 0.00in /  0mm 0 W/m2
00:24 65.1 °F /  18.4 °C 57 °F /  13.9 °C 29.99in /  1015.5hPa NW 2.4mph /  3.9km/h 2mph /  3.2km/h 75% 0.00in /  0mm 0 W/m2
00:29 64.9 °F /  18.3 °C 56.8 °F /  13.8 °C 29.98in /  1015.1hPa WNW 3.3mph /  5.3km/h 4mph /  6.4km/h 75% 0.00in /  0mm 0 W/m2
00:34 64.8 °F /  18.2 °C 56.6 °F /  13.7 °C 29.99in /  1015.5hPa West 2.3mph /  3.7km/h 4mph /  6.4km/h 75% 0.00in /  0mm 0 W/m2
00:39 64.7 °F /  18.2 °C 56.6 °F /  13.7 °C 29.98in /  1015.1hPa WNW 2.3mph /  3.7km/h 2mph /  3.2km/h 75% 0.00in /  0mm 0 W/m2
00:44 64.5 °F /  18.1 °C 56.5 °F /  13.6 °C 29.98in /  1015.1hPa NW 0.5mph /  0.8km/h 2mph /  3.2km/h 75.3% 0.00in /  0mm 0 W/m2
00:49 64.3 °F /  17.9 °C 56.9 °F /  13.8 °C 29.99in /  1015.5hPa NW 0.6mph /  1km/h 1mph /  1.6km/h 77% 0.00in /  0mm 0 W/m2
00:54 64.1 °F /  17.8 °C 56.8 °F /  13.8 °C 29.99in /  1015.5hPa NW 1.2mph /  1.9km/h 1mph /  1.6km/h 77% 0.00in /  0mm 0 W/m2
00:59 64 °F /  17.8 °C 56.8 °F /  13.8 °C 29.98in /  1015.1hPa NNW 0.9mph /  1.4km/h 2mph /  3.2km/h 77.3% 0.00in /  0mm 0 W/m2
01:04 63.9 °F /  17.7 °C 56.8 °F /  13.8 °C 29.98in /  1015.1hPa NNW 1.2mph /  1.9km/h 1mph /  1.6km/h 77.7% 0.00in /  0mm 0 W/m2
01:09 63.6 °F /  17.6 °C 56.6 °F /  13.7 °C 29.98in /  1015.1hPa NW 1.1mph /  1.8km/h 2mph /  3.2km/h 77.8% 0.00in /  0mm 0 W/m2
01:14 63.4 °F /  17.4 °C 56.4 °F /  13.6 °C 29.99in /  1015.5hPa NW 0.8mph /  1.3km/h 2mph /  3.2km/h 78% 0.00in /  0mm 0 W/m2
01:19 63.1 °F /  17.3 °C 56.2 °F /  13.4 °C 29.99in /  1015.5hPa NNW 1.4mph /  2.3km/h 2mph /  3.2km/h 78% 0.00in /  0mm 0 W/m2
01:24 62.7 °F /  17.1 °C 56.1 °F /  13.4 °C 29.98in /  1015.1hPa WNW 1.9mph /  3.1km/h 2mph /  3.2km/h 78.9% 0.00in /  0mm 0 W/m2
01:29 62.5 °F /  16.9 °C 55.9 °F /  13.3 °C 29.99in /  1015.5hPa WNW 2.2mph /  3.5km/h 2mph /  3.2km/h 79% 0.00in /  0mm 0 W/m2
01:34 62.4 °F /  16.9 °C 55.8 °F /  13.2 °C 29.98in /  1015.1hPa West 3.4mph /  5.5km/h 2.7mph /  4.3km/h 79% 0.00in /  0mm 0 W/m2
01:39 62.3 °F /  16.8 °C 55.7 °F /  13.2 °C 29.98in /  1015.1hPa West 3.1mph /  5km/h 4mph /  6.4km/h 79% 0.00in /  0mm 0 W/m2
01:44 62.2 °F /  16.8 °C 55.6 °F /  13.1 °C 29.98in /  1015.1hPa West 2.6mph /  4.2km/h 1.8mph /  2.9km/h 79% 0.00in /  0mm 0 W/m2
01:49 62.1 °F /  16.7 °C 55.6 °F /  13.1 °C 29.99in /  1015.5hPa West 2.3mph /  3.7km/h 1.6mph /  2.6km/h 79.3% 0.00in /  0mm 0 W/m2
01:54 62.1 °F /  16.7 °C 55.7 °F /  13.2 °C 29.99in /  1015.5hPa WSW 2.2mph /  3.5km/h 2mph /  3.2km/h 79.8% 0.00in /  0mm 0 W/m2
01:59 61.9 °F /  16.6 °C 55.6 °F /  13.1 °C 29.99in /  1015.5hPa West 1.7mph /  2.7km/h 2mph /  3.2km/h 80% 0.00in /  0mm 0 W/m2
02:04 61.7 °F /  16.5 °C 55.5 °F /  13.1 °C 29.99in /  1015.5hPa WNW 1.4mph /  2.3km/h 2mph /  3.2km/h 80% 0.00in /  0mm 0 W/m2
02:09 61.4 °F /  16.3 °C 55.4 °F /  13 °C 29.99in /  1015.5hPa West 2.1mph /  3.4km/h 1.6mph /  2.6km/h 80.6% 0.00in /  0mm 0 W/m2
02:14 61.2 °F /  16.2 °C 55.4 °F /  13 °C 29.99in /  1015.5hPa WNW 1.8mph /  2.9km/h 2mph /  3.2km/h 81% 0.00in /  0mm 0 W/m2
02:19 61.2 °F /  16.2 °C 55.3 °F /  12.9 °C 29.99in /  1015.5hPa WNW 2.3mph /  3.7km/h 2mph /  3.2km/h 81% 0.00in /  0mm 0 W/m2
02:24 61 °F /  16.1 °C 55.6 °F /  13.1 °C 29.99in /  1015.5hPa West 2.5mph /  4km/h 1.8mph /  2.9km/h 82.4% 0.00in /  0mm 0 W/m2
02:29 60.9 °F /  16.1 °C 55.7 °F /  13.2 °C 29.99in /  1015.5hPa West 1.8mph /  2.9km/h 3mph /  4.8km/h 83% 0.00in /  0mm 0 W/m2
02:34 60.8 °F /  16 °C 55.6 °F /  13.1 °C 29.99in /  1015.5hPa West 1.8mph /  2.9km/h 2.5mph /  4km/h 83% 0.00in /  0mm 0 W/m2
02:39 60.6 °F /  15.9 °C 55.4 °F /  13 °C 29.99in /  1015.5hPa WNW 2.9mph /  4.7km/h 3mph /  4.8km/h 83% 0.00in /  0mm 0 W/m2
02:44 60.6 °F /  15.9 °C 55.4 °F /  13 °C 29.99in /  1015.5hPa WNW 2.7mph /  4.3km/h 2.5mph /  4km/h 83% 0.00in /  0mm 0 W/m2
02:49 60.6 °F /  15.9 °C 55.4 °F /  13 °C 29.99in /  1015.5hPa WNW 2.1mph /  3.4km/h 3mph /  4.8km/h 83% 0.00in /  0mm 0 W/m2
02:54 60.5 °F /  15.8 °C 55.3 °F /  12.9 °C 29.99in /  1015.5hPa WNW 2.2mph /  3.5km/h 2mph /  3.2km/h 83% 0.00in /  0mm 0 W/m2
02:59 60.3 °F /  15.7 °C 55.3 °F /  12.9 °C 29.99in /  1015.5hPa West 2.7mph /  4.3km/h 2.2mph /  3.5km/h 83.4% 0.00in /  0mm 0 W/m2
03:04 60.2 °F /  15.7 °C 55.3 °F /  12.9 °C 29.99in /  1015.5hPa West 2.3mph /  3.7km/h 2mph /  3.2km/h 84% 0.00in /  0mm 0 W/m2
03:09 60.1 °F /  15.6 °C 55.2 °F /  12.9 °C 29.99in /  1015.5hPa West 2.3mph /  3.7km/h 2mph /  3.2km/h 84% 0.00in /  0mm 0 W/m2
03:13 60 °F /  15.6 °C 55.2 °F /  12.9 °C 29.99in /  1015.5hPa West 2.2mph /  3.5km/h 2mph /  3.2km/h 84% 0.00in /  0mm 0 W/m2
03:19 59.8 °F /  15.4 °C 55 °F /  12.8 °C 29.99in /  1015.5hPa West 2.8mph /  4.5km/h 2.2mph /  3.5km/h 84% 0.00in /  0mm 0 W/m2
03:24 59.7 °F /  15.4 °C 54.9 °F /  12.7 °C 29.99in /  1015.5hPa West 2.8mph /  4.5km/h 3mph /  4.8km/h 84% 0.00in /  0mm 0 W/m2
03:29 59.5 °F /  15.3 °C 54.7 °F /  12.6 °C 29.99in /  1015.5hPa WSW 2.3mph /  3.7km/h 3mph /  4.8km/h 84% 0.00in /  0mm 0 W/m2
03:34 59.4 °F /  15.2 °C 54.8 °F /  12.7 °C 29.99in /  1015.5hPa WSW 2.3mph /  3.7km/h 2mph /  3.2km/h 84.8% 0.00in /  0mm 0 W/m2
03:39 59.2 °F /  15.1 °C 54.7 °F /  12.6 °C 29.99in /  1015.5hPa WSW 3.5mph /  5.6km/h 3mph /  4.8km/h 85% 0.00in /  0mm 0 W/m2
03:44 59.1 °F /  15.1 °C 54.6 °F /  12.6 °C 29.99in /  1015.5hPa West 3.6mph /  5.8km/h 4mph /  6.4km/h 85% 0.00in /  0mm 0 W/m2
03:49 59.2 °F /  15.1 °C 54.8 °F /  12.7 °C 29.98in /  1015.1hPa West 4.5mph /  7.2km/h 3.1mph /  5km/h 85.3% 0.00in /  0mm 0 W/m2
03:54 59.3 °F /  15.2 °C 55 °F /  12.8 °C 29.98in /  1015.1hPa West 4.3mph /  6.9km/h 5mph /  8km/h 85.5% 0.00in /  0mm 0 W/m2
03:59 59.4 °F /  15.2 °C 54.8 °F /  12.7 °C 29.98in /  1015.1hPa West 3.5mph /  5.6km/h 5mph /  8km/h 85% 0.00in /  0mm 0 W/m2
04:04 59.4 °F /  15.2 °C 54.8 °F /  12.7 °C 29.98in /  1015.1hPa WSW 2.9mph /  4.7km/h 3mph /  4.8km/h 85% 0.00in /  0mm 0 W/m2
04:09 59.3 °F /  15.2 °C 54.7 °F /  12.6 °C 29.98in /  1015.1hPa West 2.6mph /  4.2km/h 3mph /  4.8km/h 85% 0.00in /  0mm 0 W/m2
04:14 59.2 °F /  15.1 °C 54.8 °F /  12.7 °C 29.98in /  1015.1hPa West 3.4mph /  5.5km/h 3mph /  4.8km/h 85.5% 0.00in /  0mm 0 W/m2
04:19 59.2 °F /  15.1 °C 55 °F /  12.8 °C 29.98in /  1015.1hPa WNW 3.3mph /  5.3km/h 2.7mph /  4.3km/h 86% 0.00in /  0mm 0 W/m2
04:24 59.2 °F /  15.1 °C 54.8 °F /  12.7 °C 29.98in /  1015.1hPa West 2.6mph /  4.2km/h 3mph /  4.8km/h 85.4% 0.00in /  0mm 0 W/m2
04:29 59 °F /  15 °C 54.7 °F /  12.6 °C 29.98in /  1015.1hPa West 2.3mph /  3.7km/h 3mph /  4.8km/h 85.5% 0.00in /  0mm 0 W/m2
04:34 59 °F /  15 °C 54.8 °F /  12.7 °C 29.98in /  1015.1hPa West 2.3mph /  3.7km/h 2mph /  3.2km/h 86% 0.00in /  0mm 0 W/m2
04:39 58.8 °F /  14.9 °C 54.6 °F /  12.6 °C 29.98in /  1015.1hPa West 2.1mph /  3.4km/h 1.6mph /  2.6km/h 86% 0.00in /  0mm 0 W/m2
04:44 58.6 °F /  14.8 °C 54.5 °F /  12.5 °C 29.98in /  1015.1hPa West 2.3mph /  3.7km/h 2mph /  3.2km/h 86% 0.00in /  0mm 0 W/m2
04:49 58.5 °F /  14.7 °C 54.3 °F /  12.4 °C 29.98in /  1015.1hPa West 2.5mph /  4km/h 2mph /  3.2km/h 86% 0.00in /  0mm 0 W/m2
04:54 58.3 °F /  14.6 °C 54.2 °F /  12.3 °C 29.98in /  1015.1hPa West 3.7mph /  6km/h 4mph /  6.4km/h 86% 0.00in /  0mm 0 W/m2
04:59 58.3 °F /  14.6 °C 54.4 °F /  12.4 °C 29.98in /  1015.1hPa West 3.3mph /  5.3km/h 5mph /  8km/h 87.1% 0.00in /  0mm 0 W/m2
05:04 58.2 °F /  14.6 °C 54.6 °F /  12.6 °C 29.98in /  1015.1hPa WSW 2.3mph /  3.7km/h 5mph /  8km/h 88% 0.00in /  0mm 0 W/m2
05:09 58.1 °F /  14.5 °C 54.6 °F /  12.6 °C 29.99in /  1015.5hPa WSW 2.4mph /  3.9km/h 2mph /  3.2km/h 88% 0.00in /  0mm 0 W/m2
05:14 57.9 °F /  14.4 °C 54.4 °F /  12.4 °C 29.99in /  1015.5hPa WSW 3.2mph /  5.1km/h 3mph /  4.8km/h 88% 0.00in /  0mm 1 W/m2
05:19 57.9 °F /  14.4 °C 54.4 °F /  12.4 °C 29.99in /  1015.5hPa West 2.9mph /  4.7km/h 3mph /  4.8km/h 88% 0.00in /  0mm 2 W/m2
05:24 57.7 °F /  14.3 °C 54.4 °F /  12.4 °C 29.99in /  1015.5hPa West 2.1mph /  3.4km/h 3mph /  4.8km/h 88.5% 0.00in /  0mm 3 W/m2
05:29 57.8 °F /  14.3 °C 54.6 °F /  12.6 °C 29.99in /  1015.5hPa WNW 1.2mph /  1.9km/h 2mph /  3.2km/h 89% 0.00in /  0mm 6 W/m2
05:34 57.7 °F /  14.3 °C 54.5 °F /  12.5 °C 29.99in /  1015.5hPa NW 1mph /  1.6km/h 2mph /  3.2km/h 89% 0.00in /  0mm 8 W/m2
05:39 57.7 °F /  14.3 °C 54.5 °F /  12.5 °C 29.99in /  1015.5hPa NW 1.4mph /  2.3km/h 1.1mph /  1.8km/h 89% 0.00in /  0mm 11 W/m2
05:44 57.6 °F /  14.2 °C 54.3 °F /  12.4 °C 29.99in /  1015.5hPa West 1.8mph /  2.9km/h 2mph /  3.2km/h 89% 0.00in /  0mm 15 W/m2
05:49 57.5 °F /  14.2 °C 54.2 °F /  12.3 °C 29.99in /  1015.5hPa WNW 1.3mph /  2.1km/h 2mph /  3.2km/h 89% 0.00in /  0mm 19 W/m2
05:54 57.4 °F /  14.1 °C 54.2 °F /  12.3 °C 29.99in /  1015.5hPa NW 1.8mph /  2.9km/h 2mph /  3.2km/h 89% 0.00in /  0mm 24 W/m2
05:59 57.4 °F /  14.1 °C 54.2 °F /  12.3 °C 29.99in /  1015.5hPa NW 1.6mph /  2.6km/h 2mph /  3.2km/h 89% 0.00in /  0mm 29 W/m2
06:04 57.2 °F /  14 °C 54 °F /  12.2 °C 29.99in /  1015.5hPa WNW 2.3mph /  3.7km/h 2mph /  3.2km/h 89% 0.00in /  0mm 37 W/m2
06:09 57.1 °F /  13.9 °C 54.1 °F /  12.3 °C 29.99in /  1015.5hPa West 2.8mph /  4.5km/h 2mph /  3.2km/h 89.7% 0.00in /  0mm 49 W/m2
06:14 57.1 °F /  13.9 °C 54.2 °F /  12.3 °C 29.99in /  1015.5hPa West 2.6mph /  4.2km/h 3mph /  4.8km/h 90% 0.00in /  0mm 58 W/m2
06:19 57.2 °F /  14 °C 54.3 °F /  12.4 °C 29.99in /  1015.5hPa West 3.4mph /  5.5km/h 4mph /  6.4km/h 90% 0.00in /  0mm 68 W/m2
06:24 57.4 °F /  14.1 °C 54.5 °F /  12.5 °C 29.99in /  1015.5hPa West 3.6mph /  5.8km/h 4mph /  6.4km/h 90% 0.00in /  0mm 78 W/m2
06:29 57.6 °F /  14.2 °C 54.6 °F /  12.6 °C 30.00in /  1015.8hPa West 3.5mph /  5.6km/h 4mph /  6.4km/h 90% 0.00in /  0mm 88 W/m2
06:34 57.8 °F /  14.3 °C 54.9 °F /  12.7 °C 30.00in /  1015.8hPa West 3.5mph /  5.6km/h 3mph /  4.8km/h 90% 0.00in /  0mm 100 W/m2
06:39 58.2 °F /  14.6 °C 55.3 °F /  12.9 °C 30.00in /  1015.8hPa WNW 2.7mph /  4.3km/h 4mph /  6.4km/h 90% 0.00in /  0mm 113 W/m2
06:44 58.5 °F /  14.7 °C 55.4 °F /  13 °C 30.00in /  1015.8hPa NW 2.2mph /  3.5km/h 0.9mph /  1.4km/h 89.3% 0.00in /  0mm 124 W/m2
06:49 58.7 °F /  14.8 °C 55.5 °F /  13.1 °C 30.00in /  1015.8hPa NW 0.1mph /  0.2km/h 2mph /  3.2km/h 89% 0.00in /  0mm 139 W/m2
06:54 58.8 °F /  14.9 °C 55.7 °F /  13.2 °C 30.00in /  1015.8hPa Calm     89.2% 0.00in /  0mm 151 W/m2
06:59 59 °F /  15 °C 55.8 °F /  13.2 °C 30.00in /  1015.8hPa Calm     89% 0.00in /  0mm 166 W/m2
07:04 59.2 °F /  15.1 °C 55.9 °F /  13.3 °C 30.00in /  1015.8hPa Calm     89% 0.00in /  0mm 180 W/m2
07:09 59.4 °F /  15.2 °C 56.1 °F /  13.4 °C 30.00in /  1015.8hPa North 0.8mph /  1.3km/h 0.4mph /  0.6km/h 89% 0.00in /  0mm 195 W/m2
07:14 59.6 °F /  15.3 °C 56.4 °F /  13.6 °C 30.00in /  1015.8hPa NNW 1.2mph /  1.9km/h 1mph /  1.6km/h 88.9% 0.00in /  0mm 210 W/m2
07:19 60.1 °F /  15.6 °C 56.6 °F /  13.7 °C 30.00in /  1015.8hPa WNW 1.5mph /  2.4km/h 1.1mph /  1.8km/h 88.4% 0.00in /  0mm 226 W/m2
07:24 60.4 °F /  15.8 °C 56.8 °F /  13.8 °C 30.00in /  1015.8hPa WNW 2.3mph /  3.7km/h 2mph /  3.2km/h 88% 0.00in /  0mm 241 W/m2
07:29 60.7 °F /  15.9 °C 57.1 °F /  13.9 °C 30.00in /  1015.8hPa WNW 3.9mph /  6.3km/h 2.2mph /  3.5km/h 88% 0.00in /  0mm 255 W/m2
07:34 61.3 °F /  16.3 °C 57.7 °F /  14.3 °C 30.00in /  1015.8hPa NW 2.7mph /  4.3km/h 5mph /  8km/h 88% 0.00in /  0mm 273 W/m2
07:39 61.7 °F /  16.5 °C 57.6 °F /  14.2 °C 30.00in /  1015.8hPa NW 1.9mph /  3.1km/h 3mph /  4.8km/h 86.4% 0.00in /  0mm 288 W/m2
07:44 62.4 °F /  16.9 °C 57.9 °F /  14.4 °C 30.00in /  1015.8hPa WNW 1.3mph /  2.1km/h 2mph /  3.2km/h 85.3% 0.00in /  0mm 306 W/m2
07:49 63.2 °F /  17.3 °C 58.3 °F /  14.6 °C 30.00in /  1015.8hPa WSW 2.1mph /  3.4km/h 2mph /  3.2km/h 84% 0.00in /  0mm 323 W/m2
07:54 63.7 °F /  17.6 °C 58.8 °F /  14.9 °C 30.00in /  1015.8hPa WSW 1.7mph /  2.7km/h 2mph /  3.2km/h 84.2% 0.00in /  0mm 342 W/m2
07:59 64.2 °F /  17.9 °C 59 °F /  15 °C 30.00in /  1015.8hPa West 1.9mph /  3.1km/h 2mph /  3.2km/h 83.3% 0.00in /  0mm 361 W/m2
08:04 64.7 °F /  18.2 °C 59.3 °F /  15.2 °C 30.00in /  1015.8hPa West 2.3mph /  3.7km/h 2mph /  3.2km/h 82.5% 0.00in /  0mm 379 W/m2
08:09 65.3 °F /  18.5 °C 59.2 °F /  15.1 °C 30.00in /  1015.8hPa WSW 2.3mph /  3.7km/h 2mph /  3.2km/h 80.8% 0.00in /  0mm 397 W/m2
08:14 66.1 °F /  18.9 °C 59.6 °F /  15.3 °C 30.00in /  1015.8hPa SW 2mph /  3.2km/h 2mph /  3.2km/h 79.5% 0.00in /  0mm 414 W/m2
08:19 66.8 °F /  19.3 °C 60.1 °F /  15.6 °C 30.00in /  1015.8hPa SW 2.1mph /  3.4km/h 2mph /  3.2km/h 79.3% 0.00in /  0mm 430 W/m2
08:24 67.4 °F /  19.7 °C 60.3 °F /  15.7 °C 30.00in /  1015.8hPa SW 2mph /  3.2km/h 2mph /  3.2km/h 78.2% 0.00in /  0mm 448 W/m2
08:29 68 °F /  20 °C 60.7 °F /  15.9 °C 30.00in /  1015.8hPa SW 1.3mph /  2.1km/h 2mph /  3.2km/h 77.4% 0.00in /  0mm 463 W/m2
08:34 69.5 °F /  20.8 °C 61.3 °F /  16.3 °C 30.00in /  1015.8hPa SW 1.2mph /  1.9km/h 0.7mph /  1.1km/h 75.2% 0.00in /  0mm 477 W/m2
08:39 70.9 °F /  21.6 °C 61.7 °F /  16.5 °C 30.00in /  1015.8hPa WSW 1.1mph /  1.8km/h 1mph /  1.6km/h 72.8% 0.00in /  0mm 494 W/m2
08:44 72.3 °F /  22.4 °C 61.5 °F /  16.4 °C 30.00in /  1015.8hPa West 1.2mph /  1.9km/h 1mph /  1.6km/h 69% 0.00in /  0mm 510 W/m2
08:49 73.6 °F /  23.1 °C 62 °F /  16.7 °C 30.00in /  1015.8hPa WSW 2mph /  3.2km/h 1.3mph /  2.1km/h 67.1% 0.00in /  0mm 527 W/m2
08:54 74.9 °F /  23.8 °C 63.3 °F /  17.4 °C 29.99in /  1015.5hPa SW 1.9mph /  3.1km/h 2mph /  3.2km/h 67.3% 0.00in /  0mm 542 W/m2
08:59 75.8 °F /  24.3 °C 63.3 °F /  17.4 °C 29.99in /  1015.5hPa South 3.2mph /  5.1km/h 3mph /  4.8km/h 65.3% 0.00in /  0mm 560 W/m2
09:04 76.3 °F /  24.6 °C 63.5 °F /  17.5 °C 29.99in /  1015.5hPa South 2.3mph /  3.7km/h 3mph /  4.8km/h 64.6% 0.00in /  0mm 574 W/m2
09:09 76.9 °F /  24.9 °C 63.8 °F /  17.7 °C 29.99in /  1015.5hPa SSE 3.7mph /  6km/h 2.9mph /  4.7km/h 64.1% 0.00in /  0mm 590 W/m2
09:14 77.6 °F /  25.3 °C 64.2 °F /  17.9 °C 29.99in /  1015.5hPa East 3.2mph /  5.1km/h 4mph /  6.4km/h 63.4% 0.00in /  0mm 606 W/m2
09:19 78.1 °F /  25.6 °C 64.6 °F /  18.1 °C 29.99in /  1015.5hPa SE 2.8mph /  4.5km/h 4mph /  6.4km/h 63.3% 0.00in /  0mm 621 W/m2
09:24 78.7 °F /  25.9 °C 64.9 °F /  18.3 °C 29.99in /  1015.5hPa South 3.9mph /  6.3km/h 4mph /  6.4km/h 62.6% 0.00in /  0mm 636 W/m2
09:29 79.4 °F /  26.3 °C 64.8 °F /  18.2 °C 29.99in /  1015.5hPa ENE 2.7mph /  4.3km/h 5mph /  8km/h 61.1% 0.00in /  0mm 651 W/m2
09:34 79.9 °F /  26.6 °C 65.1 °F /  18.4 °C 29.99in /  1015.5hPa NE 3.4mph /  5.5km/h 5mph /  8km/h 60.7% 0.00in /  0mm 662 W/m2
09:39 80.5 °F /  26.9 °C 64.9 °F /  18.3 °C 29.99in /  1015.5hPa NNE 2.6mph /  4.2km/h 4mph /  6.4km/h 59.2% 0.00in /  0mm 680 W/m2
09:44 80.8 °F /  27.1 °C 64.5 °F /  18.1 °C 29.99in /  1015.5hPa ENE 3.4mph /  5.5km/h 3mph /  4.8km/h 57.9% 0.00in /  0mm 694 W/m2
09:49 81.1 °F /  27.3 °C 63.9 °F /  17.7 °C 29.99in /  1015.5hPa ENE 4.1mph /  6.6km/h 5mph /  8km/h 56% 0.00in /  0mm 709 W/m2
09:54 81.5 °F /  27.5 °C 63.5 °F /  17.5 °C 29.98in /  1015.1hPa NE 6.3mph /  10.1km/h 6mph /  9.7km/h 54.4% 0.00in /  0mm 723 W/m2
09:59 81.9 °F /  27.7 °C 64.1 °F /  17.8 °C 29.98in /  1015.1hPa NE 6mph /  9.7km/h 8mph /  12.9km/h 54.7% 0.00in /  0mm 736 W/m2
10:04 82.7 °F /  28.2 °C 64.3 °F /  17.9 °C 29.98in /  1015.1hPa NE 5.7mph /  9.2km/h 7mph /  11.3km/h 53.9% 0.00in /  0mm 747 W/m2
10:09 83.5 °F /  28.6 °C 64 °F /  17.8 °C 29.98in /  1015.1hPa NE 6mph /  9.7km/h 7mph /  11.3km/h 52.1% 0.00in /  0mm 757 W/m2
10:14 83.4 °F /  28.6 °C 63.8 °F /  17.7 °C 29.98in /  1015.1hPa ENE 7.7mph /  12.4km/h 7mph /  11.3km/h 51.8% 0.00in /  0mm 769 W/m2
10:19 83.9 °F /  28.8 °C 65.2 °F /  18.4 °C 29.98in /  1015.1hPa NE 5.8mph /  9.3km/h 10mph /  16.1km/h 53.4% 0.00in /  0mm 781 W/m2
10:24 84.6 °F /  29.2 °C 64.7 °F /  18.2 °C 29.98in /  1015.1hPa NE 5.9mph /  9.5km/h 7mph /  11.3km/h 51.5% 0.00in /  0mm 792 W/m2
10:29 85.3 °F /  29.6 °C 65 °F /  18.3 °C 29.98in /  1015.1hPa NE 5.7mph /  9.2km/h 7mph /  11.3km/h 50.8% 0.00in /  0mm 800 W/m2
10:34 85.9 °F /  29.9 °C 64.5 °F /  18.1 °C 29.98in /  1015.1hPa NNE 8.1mph /  13km/h 4.7mph /  7.6km/h 48.9% 0.00in /  0mm 812 W/m2
10:39 86.5 °F /  30.3 °C 64.5 °F /  18.1 °C 29.98in /  1015.1hPa North 5.7mph /  9.2km/h 9mph /  14.5km/h 48% 0.00in /  0mm 818 W/m2
10:44 87 °F /  30.6 °C 65.1 °F /  18.4 °C 29.98in /  1015.1hPa NNE 6.5mph /  10.5km/h 7mph /  11.3km/h 48.2% 0.00in /  0mm 833 W/m2
10:49 87.5 °F /  30.8 °C 65.4 °F /  18.6 °C 29.98in /  1015.1hPa NNE 5.7mph /  9.2km/h 7mph /  11.3km/h 48% 0.00in /  0mm 829 W/m2
10:54 87.9 °F /  31.1 °C 66 °F /  18.9 °C 29.97in /  1014.8hPa NE 5.2mph /  8.4km/h 7mph /  11.3km/h 48.4% 0.00in /  0mm 694 W/m2
10:59 88.3 °F /  31.3 °C 66.3 °F /  19.1 °C 29.97in /  1014.8hPa NE 6.9mph /  11.1km/h 4.5mph /  7.2km/h 48.2% 0.00in /  0mm 865 W/m2
11:04 88.7 °F /  31.5 °C 65 °F /  18.3 °C 29.97in /  1014.8hPa NNE 7.4mph /  11.9km/h 9mph /  14.5km/h 45.7% 0.00in /  0mm 871 W/m2
11:09 89 °F /  31.7 °C 64.6 °F /  18.1 °C 29.97in /  1014.8hPa NNE 8.6mph /  13.8km/h 8mph /  12.9km/h 44.5% 0.00in /  0mm 872 W/m2
11:14 89.6 °F /  32 °C 65.7 °F /  18.7 °C 29.97in /  1014.8hPa NNE 6.5mph /  10.5km/h 9mph /  14.5km/h 45.4% 0.00in /  0mm 812 W/m2
11:19 90.3 °F /  32.4 °C 65.9 °F /  18.8 °C 29.97in /  1014.8hPa NNE 6.6mph /  10.6km/h 8mph /  12.9km/h 44.8% 0.00in /  0mm 892 W/m2
11:24 90.7 °F /  32.6 °C 65.5 °F /  18.6 °C 29.97in /  1014.8hPa North 7.8mph /  12.6km/h 7mph /  11.3km/h 43.6% 0.00in /  0mm 789 W/m2
11:29 90.9 °F /  32.7 °C 65.6 °F /  18.7 °C 29.97in /  1014.8hPa NNE 7.1mph /  11.4km/h 9mph /  14.5km/h 43.5% 0.00in /  0mm 895 W/m2
11:34 91.4 °F /  33 °C 65.9 °F /  18.8 °C 29.97in /  1014.8hPa NNE 7mph /  11.3km/h 4.5mph /  7.2km/h 43.2% 0.00in /  0mm 834 W/m2
11:39 91.8 °F /  33.2 °C 66.2 °F /  19 °C 29.97in /  1014.8hPa NNE 7.8mph /  12.6km/h 7mph /  11.3km/h 43.1% 0.00in /  0mm 619 W/m2
11:44 91.8 °F /  33.2 °C 66 °F /  18.9 °C 29.97in /  1014.8hPa NNE 10.3mph /  16.6km/h 11mph /  17.7km/h 42.8% 0.00in /  0mm 487 W/m2
11:49 92.2 °F /  33.4 °C 65.7 °F /  18.7 °C 29.97in /  1014.8hPa North 7.5mph /  12.1km/h 12mph /  19.3km/h 41.9% 0.00in /  0mm 939 W/m2
11:54 92.4 °F /  33.6 °C 66 °F /  18.9 °C 29.96in /  1014.4hPa North 9.5mph /  15.3km/h 8mph /  12.9km/h 42% 0.00in /  0mm 954 W/m2
11:59 92.6 °F /  33.7 °C 65 °F /  18.3 °C 29.96in /  1014.4hPa North 8mph /  12.9km/h 12mph /  19.3km/h 40.4% 0.00in /  0mm 956 W/m2
12:04 92.7 °F /  33.7 °C 65.4 °F /  18.6 °C 29.96in /  1014.4hPa North 7.6mph /  12.2km/h 8mph /  12.9km/h 40.8% 0.00in /  0mm 959 W/m2
12:09 92.9 °F /  33.8 °C 64.7 °F /  18.2 °C 29.96in /  1014.4hPa North 10.4mph /  16.7km/h 9mph /  14.5km/h 39.6% 0.00in /  0mm 966 W/m2
12:14 93 °F /  33.9 °C 64.1 °F /  17.8 °C 29.96in /  1014.4hPa North 8.2mph /  13.2km/h 12mph /  19.3km/h 38.5% 0.00in /  0mm 981 W/m2
12:19 93.1 °F /  33.9 °C 64.5 °F /  18.1 °C 29.96in /  1014.4hPa North 7.8mph /  12.6km/h 10mph /  16.1km/h 39% 0.00in /  0mm 992 W/m2
12:24 93.3 °F /  34.1 °C 64.3 °F /  17.9 °C 29.96in /  1014.4hPa NNE 6.1mph /  9.8km/h 8mph /  12.9km/h 38.5% 0.00in /  0mm 997 W/m2
12:29 93.8 °F /  34.3 °C 64.7 °F /  18.2 °C 29.96in /  1014.4hPa NNE 7mph /  11.3km/h 6mph /  9.7km/h 38.5% 0.00in /  0mm 1012 W/m2
12:34 94 °F /  34.4 °C 64.5 °F /  18.1 °C 29.95in /  1014.1hPa North 5.2mph /  8.4km/h 8mph /  12.9km/h 38% 0.00in /  0mm 692 W/m2
12:39 93.2 °F /  34 °C 64 °F /  17.8 °C 29.96in /  1014.4hPa North 7.1mph /  11.4km/h 4mph /  6.4km/h 38.2% 0.00in /  0mm 507 W/m2
12:44 92.5 °F /  33.6 °C 63.8 °F /  17.7 °C 29.95in /  1014.1hPa NNE 6.7mph /  10.8km/h 9mph /  14.5km/h 38.8% 0.00in /  0mm 374 W/m2
12:49 92 °F /  33.3 °C 63.8 °F /  17.7 °C 29.95in /  1014.1hPa NE 8.3mph /  13.4km/h 9mph /  14.5km/h 39.5% 0.00in /  0mm 577 W/m2
12:54 91.9 °F /  33.3 °C 63.9 °F /  17.7 °C 29.95in /  1014.1hPa NNE 8.2mph /  13.2km/h 10mph /  16.1km/h 39.7% 0.00in /  0mm 1030 W/m2
12:59 92.3 °F /  33.5 °C 65.5 °F /  18.6 °C 29.95in /  1014.1hPa NNE 9.7mph /  15.6km/h 6mph /  9.7km/h 41.4% 0.00in /  0mm 1008 W/m2
13:04 93.1 °F /  33.9 °C 64.3 °F /  17.9 °C 29.95in /  1014.1hPa NNE 8.6mph /  13.8km/h 11mph /  17.7km/h 38.7% 0.00in /  0mm 973 W/m2
13:09 93.7 °F /  34.3 °C 64.7 °F /  18.2 °C 29.95in /  1014.1hPa NNE 5.6mph /  9km/h 11mph /  17.7km/h 38.6% 0.00in /  0mm 982 W/m2
13:14 94 °F /  34.4 °C 64.2 °F /  17.9 °C 29.95in /  1014.1hPa NNE 9.2mph /  14.8km/h 8mph /  12.9km/h 37.6% 0.00in /  0mm 982 W/m2
13:19 94.1 °F /  34.5 °C 64.9 °F /  18.3 °C 29.95in /  1014.1hPa NNE 9.6mph /  15.4km/h 5.8mph /  9.3km/h 38.4% 0.00in /  0mm 989 W/m2
13:24 94.4 °F /  34.7 °C 64.5 °F /  18.1 °C 29.95in /  1014.1hPa NE 9.6mph /  15.4km/h 12mph /  19.3km/h 37.6% 0.00in /  0mm 995 W/m2
13:29 94.7 °F /  34.8 °C 64.3 °F /  17.9 °C 29.95in /  1014.1hPa NE 9.7mph /  15.6km/h 12mph /  19.3km/h 36.9% 0.00in /  0mm 994 W/m2
13:34 94.9 °F /  34.9 °C 63.7 °F /  17.6 °C 29.95in /  1014.1hPa NNE 7mph /  11.3km/h 9mph /  14.5km/h 36% 0.00in /  0mm 1009 W/m2
13:39 95.2 °F /  35.1 °C 63.9 °F /  17.7 °C 29.95in /  1014.1hPa North 11.9mph /  19.2km/h 11mph /  17.7km/h 35.8% 0.00in /  0mm 1001 W/m2
13:44 95.2 °F /  35.1 °C 64.7 °F /  18.2 °C 29.95in /  1014.1hPa North 10.1mph /  16.3km/h 13mph /  20.9km/h 36.9% 0.00in /  0mm 986 W/m2
13:49 95.5 °F /  35.3 °C 65.5 °F /  18.6 °C 29.94in /  1013.8hPa North 9.8mph /  15.8km/h 12mph /  19.3km/h 37.5% 0.00in /  0mm 980 W/m2
13:54 95.8 °F /  35.4 °C 65.4 °F /  18.6 °C 29.94in /  1013.8hPa North 7.8mph /  12.6km/h 12mph /  19.3km/h 37% 0.00in /  0mm 953 W/m2
13:59 95.9 °F /  35.5 °C 63.1 °F /  17.3 °C 29.94in /  1013.8hPa NNE 8.6mph /  13.8km/h 11mph /  17.7km/h 34.1% 0.00in /  0mm 968 W/m2
14:04 94.8 °F /  34.9 °C 63 °F /  17.2 °C 29.94in /  1013.8hPa NE 7.4mph /  11.9km/h 10mph /  16.1km/h 35.1% 0.00in /  0mm 959 W/m2
14:09 94.6 °F /  34.8 °C 62.9 °F /  17.2 °C 29.94in /  1013.8hPa ENE 6.7mph /  10.8km/h 10mph /  16.1km/h 35.2% 0.00in /  0mm 738 W/m2
14:14 94.5 °F /  34.7 °C 63.1 °F /  17.3 °C 29.94in /  1013.8hPa NE 7.1mph /  11.4km/h 9mph /  14.5km/h 35.6% 0.00in /  0mm 480 W/m2
14:19 94.1 °F /  34.5 °C 63.4 °F /  17.4 °C 29.94in /  1013.8hPa NNE 4.6mph /  7.4km/h 8mph /  12.9km/h 36.4% 0.00in /  0mm 990 W/m2
14:24 94.3 °F /  34.6 °C 63.6 °F /  17.6 °C 29.94in /  1013.8hPa NNE 5.7mph /  9.2km/h 4.9mph /  7.9km/h 36.5% 0.00in /  0mm 933 W/m2
14:29 94 °F /  34.4 °C 64 °F /  17.8 °C 29.94in /  1013.8hPa NNE 7.9mph /  12.7km/h 9mph /  14.5km/h 37.4% 0.00in /  0mm 349 W/m2
14:34 93.4 °F /  34.1 °C 64 °F /  17.8 °C 29.94in /  1013.8hPa NE 6.9mph /  11.1km/h 10mph /  16.1km/h 38% 0.00in /  0mm 541 W/m2
14:39 93.3 °F /  34.1 °C 64.1 °F /  17.8 °C 29.94in /  1013.8hPa NNE 7.5mph /  12.1km/h 7mph /  11.3km/h 38.3% 0.00in /  0mm 826 W/m2
14:44 93.8 °F /  34.3 °C 64.9 °F /  18.3 °C 29.94in /  1013.8hPa NNW 4.4mph /  7.1km/h 3.6mph /  5.8km/h 38.7% 0.00in /  0mm 913 W/m2
14:49 94.5 °F /  34.7 °C 65.2 °F /  18.4 °C 29.93in /  1013.4hPa NNW 5.5mph /  8.9km/h 6mph /  9.7km/h 38.2% 0.00in /  0mm 858 W/m2
14:54 95 °F /  35 °C 65.4 °F /  18.6 °C 29.93in /  1013.4hPa NNW 7.1mph /  11.4km/h 8mph /  12.9km/h 38% 0.00in /  0mm 858 W/m2
14:59 95.7 °F /  35.4 °C 65.1 °F /  18.4 °C 29.93in /  1013.4hPa North 9.8mph /  15.8km/h 8mph /  12.9km/h 36.8% 0.00in /  0mm 848 W/m2
15:04 95.8 °F /  35.4 °C 63.8 °F /  17.7 °C 29.93in /  1013.4hPa North 11.7mph /  18.8km/h 13mph /  20.9km/h 35% 0.00in /  0mm 818 W/m2
15:09 95.6 °F /  35.3 °C 64.4 °F /  18 °C 29.93in /  1013.4hPa North 8.2mph /  13.2km/h 13mph /  20.9km/h 36% 0.00in /  0mm 802 W/m2
15:14 95.8 °F /  35.4 °C 63.8 °F /  17.7 °C 29.93in /  1013.4hPa North 8.1mph /  13km/h 9mph /  14.5km/h 35.1% 0.00in /  0mm 809 W/m2
15:19 96 °F /  35.6 °C 64.6 °F /  18.1 °C 29.93in /  1013.4hPa North 8.2mph /  13.2km/h 12mph /  19.3km/h 35.9% 0.00in /  0mm 800 W/m2
15:24 96.3 °F /  35.7 °C 64.3 °F /  17.9 °C 29.93in /  1013.4hPa North 7.9mph /  12.7km/h 9mph /  14.5km/h 35.2% 0.00in /  0mm 786 W/m2
15:29 96.3 °F /  35.7 °C 64.4 °F /  18 °C 29.93in /  1013.4hPa North 9.6mph /  15.4km/h 9mph /  14.5km/h 35.3% 0.00in /  0mm 766 W/m2
15:34 96.4 °F /  35.8 °C 64.5 °F /  18.1 °C 29.93in /  1013.4hPa North 9.6mph /  15.4km/h 6.9mph /  11.1km/h 35.2% 0.00in /  0mm 744 W/m2
15:39 96.7 °F /  35.9 °C 64.4 °F /  18 °C 29.93in /  1013.4hPa NNE 9.5mph /  15.3km/h 11mph /  17.7km/h 34.9% 0.00in /  0mm 716 W/m2
15:44 96.6 °F /  35.9 °C 63.3 °F /  17.4 °C 29.92in /  1013.1hPa NNE 9.2mph /  14.8km/h 14mph /  22.5km/h 33.6% 0.00in /  0mm 679 W/m2
15:49 96.2 °F /  35.7 °C 63.4 °F /  17.4 °C 29.92in /  1013.1hPa NE 8.9mph /  14.3km/h 12mph /  19.3km/h 34.1% 0.00in /  0mm 657 W/m2
15:54 96.1 °F /  35.6 °C 63.6 °F /  17.6 °C 29.92in /  1013.1hPa NNE 9.2mph /  14.8km/h 13mph /  20.9km/h 34.6% 0.00in /  0mm 637 W/m2
15:58 96.2 °F /  35.7 °C 63.9 °F /  17.7 °C 29.92in /  1013.1hPa NNE 5mph /  8km/h 12mph /  19.3km/h 34.7% 0.00in /  0mm 622 W/m2
16:04 96.6 °F /  35.9 °C 63.2 °F /  17.3 °C 29.92in /  1013.1hPa NNE 5.3mph /  8.5km/h 5mph /  8km/h 33.6% 0.00in /  0mm 614 W/m2
16:09 96.2 °F /  35.7 °C 62.6 °F /  17 °C 29.92in /  1013.1hPa NNE 7.9mph /  12.7km/h 4.5mph /  7.2km/h 33.3% 0.00in /  0mm 613 W/m2
16:14 95.8 °F /  35.4 °C 62.9 °F /  17.2 °C 29.92in /  1013.1hPa ENE 5.2mph /  8.4km/h 3.8mph /  6.1km/h 34% 0.00in /  0mm 598 W/m2
16:19 96 °F /  35.6 °C 63.3 °F /  17.4 °C 29.92in /  1013.1hPa NE 6.2mph /  10km/h 7mph /  11.3km/h 34.2% 0.00in /  0mm 581 W/m2
16:24 96.3 °F /  35.7 °C 63.5 °F /  17.5 °C 29.92in /  1013.1hPa North 5.9mph /  9.5km/h 4.2mph /  6.8km/h 34.2% 0.00in /  0mm 561 W/m2
16:29 96.5 °F /  35.8 °C 63.6 °F /  17.6 °C 29.92in /  1013.1hPa North 4.2mph /  6.8km/h 7mph /  11.3km/h 34% 0.00in /  0mm 546 W/m2
16:34 96.5 °F /  35.8 °C 63.6 °F /  17.6 °C 29.92in /  1013.1hPa North 8.4mph /  13.5km/h 5.1mph /  8.2km/h 34.1% 0.00in /  0mm 525 W/m2
16:39 96.3 °F /  35.7 °C 64.1 °F /  17.8 °C 29.92in /  1013.1hPa North 7mph /  11.3km/h 10mph /  16.1km/h 34.9% 0.00in /  0mm 502 W/m2
16:44 96.3 °F /  35.7 °C 63.5 °F /  17.5 °C 29.91in /  1012.8hPa North 5.9mph /  9.5km/h 8mph /  12.9km/h 34.2% 0.00in /  0mm 485 W/m2
16:49 96.3 °F /  35.7 °C 63.7 °F /  17.6 °C 29.91in /  1012.8hPa NNW 4.2mph /  6.8km/h 2.2mph /  3.5km/h 34.5% 0.00in /  0mm 476 W/m2
16:54 96 °F /  35.6 °C 63.6 °F /  17.6 °C 29.91in /  1012.8hPa North 5mph /  8km/h 5mph /  8km/h 34.7% 0.00in /  0mm 467 W/m2
16:59 95.9 °F /  35.5 °C 64.7 °F /  18.2 °C 29.91in /  1012.8hPa NE 6.6mph /  10.6km/h 4.7mph /  7.6km/h 36.1% 0.00in /  0mm 449 W/m2
17:04 95.9 °F /  35.5 °C 63.8 °F /  17.7 °C 29.91in /  1012.8hPa NNE 7.5mph /  12.1km/h 5.1mph /  8.2km/h 35% 0.00in /  0mm 423 W/m2
17:09 95.7 °F /  35.4 °C 63.7 °F /  17.6 °C 29.91in /  1012.8hPa North 6.3mph /  10.1km/h 9mph /  14.5km/h 35% 0.00in /  0mm 402 W/m2
17:14 95.5 °F /  35.3 °C 63.2 °F /  17.3 °C 29.91in /  1012.8hPa North 7.7mph /  12.4km/h 8mph /  12.9km/h 34.6% 0.00in /  0mm 387 W/m2
17:19 95.3 °F /  35.2 °C 62.6 °F /  17 °C 29.91in /  1012.8hPa North 7.5mph /  12.1km/h 8mph /  12.9km/h 34.2% 0.00in /  0mm 378 W/m2
17:24 95 °F /  35 °C 63.3 °F /  17.4 °C 29.91in /  1012.8hPa North 8mph /  12.9km/h 8mph /  12.9km/h 35.3% 0.00in /  0mm 376 W/m2
17:29 95.1 °F /  35.1 °C 63.6 °F /  17.6 °C 29.91in /  1012.8hPa North 5.1mph /  8.2km/h 8mph /  12.9km/h 35.6% 0.00in /  0mm 380 W/m2
17:34 95.3 °F /  35.2 °C 62.6 °F /  17 °C 29.91in /  1012.8hPa North 5.3mph /  8.5km/h 7mph /  11.3km/h 34.1% 0.00in /  0mm 367 W/m2
17:39 95.5 °F /  35.3 °C 62.4 °F /  16.9 °C 29.91in /  1012.8hPa NNW 5.5mph /  8.9km/h 6mph /  9.7km/h 33.6% 0.00in /  0mm 354 W/m2
17:44 95.5 °F /  35.3 °C 62.4 °F /  16.9 °C 29.91in /  1012.8hPa NNW 6.3mph /  10.1km/h 6mph /  9.7km/h 33.7% 0.00in /  0mm 328 W/m2
17:49 95.4 °F /  35.2 °C 62.9 °F /  17.2 °C 29.91in /  1012.8hPa North 6.5mph /  10.5km/h 7mph /  11.3km/h 34.5% 0.00in /  0mm 298 W/m2
17:54 95.4 °F /  35.2 °C 62.7 °F /  17.1 °C 29.91in /  1012.8hPa North 5.8mph /  9.3km/h 7mph /  11.3km/h 34.3% 0.00in /  0mm 279 W/m2
17:59 95.4 °F /  35.2 °C 63.3 °F /  17.4 °C 29.91in /  1012.8hPa North 6.5mph /  10.5km/h 7mph /  11.3km/h 35% 0.00in /  0mm 255 W/m2
18:04 95.2 °F /  35.1 °C 62.7 °F /  17.1 °C 29.91in /  1012.8hPa North 5.7mph /  9.2km/h 8mph /  12.9km/h 34.4% 0.00in /  0mm 237 W/m2
18:09 95.2 °F /  35.1 °C 62.4 °F /  16.9 °C 29.91in /  1012.8hPa North 6.2mph /  10km/h 6mph /  9.7km/h 34% 0.00in /  0mm 217 W/m2
18:14 95.1 °F /  35.1 °C 62.3 °F /  16.8 °C 29.91in /  1012.8hPa North 7.6mph /  12.2km/h 8mph /  12.9km/h 34% 0.00in /  0mm 200 W/m2
18:19 94.7 °F /  34.8 °C 62 °F /  16.7 °C 29.91in /  1012.8hPa North 5.4mph /  8.7km/h 10mph /  16.1km/h 34% 0.00in /  0mm 186 W/m2
18:24 94.5 °F /  34.7 °C 61.8 °F /  16.6 °C 29.91in /  1012.8hPa North 4.4mph /  7.1km/h 6mph /  9.7km/h 34% 0.00in /  0mm 166 W/m2
18:29 94.3 °F /  34.6 °C 61.6 °F /  16.4 °C 29.91in /  1012.8hPa North 5.7mph /  9.2km/h 6mph /  9.7km/h 34% 0.00in /  0mm 157 W/m2
18:34 94 °F /  34.4 °C 61.4 °F /  16.3 °C 29.91in /  1012.8hPa North 5mph /  8km/h 7mph /  11.3km/h 34% 0.00in /  0mm 146 W/m2
18:39 93.7 °F /  34.3 °C 61.1 °F /  16.2 °C 29.91in /  1012.8hPa North 6.9mph /  11.1km/h 6mph /  9.7km/h 34% 0.00in /  0mm 134 W/m2
18:44 93.4 °F /  34.1 °C 60.8 °F /  16 °C 29.91in /  1012.8hPa North 6.7mph /  10.8km/h 8mph /  12.9km/h 34% 0.00in /  0mm 121 W/m2
18:49 93.1 °F /  33.9 °C 61.1 °F /  16.2 °C 29.91in /  1012.8hPa North 5.2mph /  8.4km/h 8mph /  12.9km/h 34.7% 0.00in /  0mm 106 W/m2
18:54 92.9 °F /  33.8 °C 61.3 °F /  16.3 °C 29.91in /  1012.8hPa North 4.7mph /  7.6km/h 6mph /  9.7km/h 35% 0.00in /  0mm 93 W/m2
18:59 92.6 °F /  33.7 °C 61.8 °F /  16.6 °C 29.91in /  1012.8hPa North 4.6mph /  7.4km/h 6mph /  9.7km/h 36.1% 0.00in /  0mm 81 W/m2
19:04 92.2 °F /  33.4 °C 62.1 °F /  16.7 °C 29.91in /  1012.8hPa North 3.8mph /  6.1km/h 2.9mph /  4.7km/h 36.9% 0.00in /  0mm 68 W/m2
19:09 91.9 °F /  33.3 °C 61.6 °F /  16.4 °C 29.91in /  1012.8hPa North 4.2mph /  6.8km/h 4mph /  6.4km/h 36.7% 0.00in /  0mm 55 W/m2
19:14 91.3 °F /  32.9 °C 61.3 °F /  16.3 °C 29.91in /  1012.8hPa North 4.6mph /  7.4km/h 6mph /  9.7km/h 36.8% 0.00in /  0mm 44 W/m2
19:19 90.8 °F /  32.7 °C 60.9 °F /  16.1 °C 29.91in /  1012.8hPa NNW 4.7mph /  7.6km/h 7mph /  11.3km/h 37% 0.00in /  0mm 34 W/m2
19:24 90.3 °F /  32.4 °C 60.8 °F /  16 °C 29.91in /  1012.8hPa NNW 3.2mph /  5.1km/h 6mph /  9.7km/h 37.3% 0.00in /  0mm 28 W/m2
19:29 89.9 °F /  32.2 °C 60.8 °F /  16 °C 29.91in /  1012.8hPa NW 3.1mph /  5km/h 3mph /  4.8km/h 38% 0.00in /  0mm 22 W/m2
19:34 89.1 °F /  31.7 °C 60.7 °F /  15.9 °C 29.91in /  1012.8hPa NW 3.1mph /  5km/h 3mph /  4.8km/h 38.6% 0.00in /  0mm 16 W/m2
19:39 88.6 °F /  31.4 °C 60.2 °F /  15.7 °C 29.91in /  1012.8hPa NW 3.9mph /  6.3km/h 4mph /  6.4km/h 38.7% 0.00in /  0mm 12 W/m2
19:44 88 °F /  31.1 °C 60.1 °F /  15.6 °C 29.91in /  1012.8hPa NW 3.5mph /  5.6km/h 5mph /  8km/h 39.3% 0.00in /  0mm 9 W/m2
19:49 87.4 °F /  30.8 °C 59.4 °F /  15.2 °C 29.91in /  1012.8hPa NNW 4mph /  6.4km/h 4mph /  6.4km/h 39% 0.00in /  0mm 6 W/m2
19:54 87 °F /  30.6 °C 59.7 °F /  15.4 °C 29.91in /  1012.8hPa NNW 3.6mph /  5.8km/h 5mph /  8km/h 39.9% 0.00in /  0mm 4 W/m2
19:59 86.4 °F /  30.2 °C 60.4 °F /  15.8 °C 29.91in /  1012.8hPa North 2mph /  3.2km/h 4mph /  6.4km/h 41.8% 0.00in /  0mm 2 W/m2
20:04 86.1 °F /  30.1 °C 60.4 °F /  15.8 °C 29.91in /  1012.8hPa NNW 1.9mph /  3.1km/h 2mph /  3.2km/h 42.2% 0.00in /  0mm 1 W/m2
20:09 85.6 °F /  29.8 °C 60.6 °F /  15.9 °C 29.91in /  1012.8hPa West 1.9mph /  3.1km/h 2mph /  3.2km/h 43.1% 0.00in /  0mm 0 W/m2
20:14 85.1 °F /  29.5 °C 60.7 °F /  15.9 °C 29.91in /  1012.8hPa SW 2.1mph /  3.4km/h 2mph /  3.2km/h 44% 0.00in /  0mm 0 W/m2
20:19 84.5 °F /  29.2 °C 60.7 °F /  15.9 °C 29.91in /  1012.8hPa WSW 3.1mph /  5km/h 2.9mph /  4.7km/h 44.8% 0.00in /  0mm 0 W/m2
20:24 83.8 °F /  28.8 °C 60.2 °F /  15.7 °C 29.91in /  1012.8hPa WSW 2.8mph /  4.5km/h 4mph /  6.4km/h 45% 0.00in /  0mm 0 W/m2
20:29 83.2 °F /  28.4 °C 61 °F /  16.1 °C 29.91in /  1012.8hPa WSW 2.4mph /  3.9km/h 3mph /  4.8km/h 47.3% 0.00in /  0mm 0 W/m2
20:34 82.7 °F /  28.2 °C 61 °F /  16.1 °C 29.91in /  1012.8hPa WSW 3.4mph /  5.5km/h 2.5mph /  4km/h 48% 0.00in /  0mm 0 W/m2
20:39 82.2 °F /  27.9 °C 60.5 °F /  15.8 °C 29.92in /  1013.1hPa WSW 2.3mph /  3.7km/h 3mph /  4.8km/h 48% 0.00in /  0mm 0 W/m2
20:44 81.7 °F /  27.6 °C 60.2 °F /  15.7 °C 29.92in /  1013.1hPa WSW 2.4mph /  3.9km/h 2mph /  3.2km/h 48.2% 0.00in /  0mm 0 W/m2
20:49 81 °F /  27.2 °C 60.2 °F /  15.7 °C 29.92in /  1013.1hPa SW 2.7mph /  4.3km/h 3mph /  4.8km/h 49.2% 0.00in /  0mm 0 W/m2
20:54 80.4 °F /  26.9 °C 60 °F /  15.6 °C 29.92in /  1013.1hPa SSW 3.5mph /  5.6km/h 3.1mph /  5km/h 50% 0.00in /  0mm 0 W/m2
20:59 79.7 °F /  26.5 °C 60.4 °F /  15.8 °C 29.92in /  1013.1hPa SSW 3.3mph /  5.3km/h 4mph /  6.4km/h 51.8% 0.00in /  0mm 0 W/m2
21:04 79.3 °F /  26.3 °C 60.2 °F /  15.7 °C 29.92in /  1013.1hPa SSW 2.6mph /  4.2km/h 4mph /  6.4km/h 52.1% 0.00in /  0mm 0 W/m2
21:09 78.8 °F /  26 °C 60.2 °F /  15.7 °C 29.92in /  1013.1hPa SSW 2.4mph /  3.9km/h 3mph /  4.8km/h 53% 0.00in /  0mm 0 W/m2
21:14 78.3 °F /  25.7 °C 59.8 °F /  15.4 °C 29.93in /  1013.4hPa South 3.2mph /  5.1km/h 3mph /  4.8km/h 53.1% 0.00in /  0mm 0 W/m2
21:19 77.6 °F /  25.3 °C 59.6 °F /  15.3 °C 29.93in /  1013.4hPa SSE 3.2mph /  5.1km/h 2.5mph /  4km/h 54% 0.00in /  0mm 0 W/m2
21:24 77.3 °F /  25.2 °C 59.3 °F /  15.2 °C 29.93in /  1013.4hPa SSE 2.2mph /  3.5km/h 4mph /  6.4km/h 54% 0.00in /  0mm 0 W/m2
21:29 77 °F /  25 °C 59.1 °F /  15.1 °C 29.93in /  1013.4hPa ESE 1.2mph /  1.9km/h 2mph /  3.2km/h 54% 0.00in /  0mm 0 W/m2
21:34 76.8 °F /  24.9 °C 59.2 °F /  15.1 °C 29.93in /  1013.4hPa NNW 2mph /  3.2km/h 0.9mph /  1.4km/h 54.6% 0.00in /  0mm 0 W/m2
21:39 76.7 °F /  24.8 °C 59.3 °F /  15.2 °C 29.94in /  1013.8hPa North 0.8mph /  1.3km/h 0.4mph /  0.6km/h 55% 0.00in /  0mm 0 W/m2
21:44 76.4 °F /  24.7 °C 59.3 °F /  15.2 °C 29.94in /  1013.8hPa NNE 0.6mph /  1km/h 2mph /  3.2km/h 55.4% 0.00in /  0mm 0 W/m2
21:49 76.1 °F /  24.5 °C 59.5 °F /  15.3 °C 29.94in /  1013.8hPa North 1mph /  1.6km/h 1mph /  1.6km/h 56.4% 0.00in /  0mm 0 W/m2
21:54 75.8 °F /  24.3 °C 59.5 °F /  15.3 °C 29.94in /  1013.8hPa NNW 2mph /  3.2km/h 1.3mph /  2.1km/h 57.1% 0.00in /  0mm 0 W/m2
21:59 75.5 °F /  24.2 °C 59.7 °F /  15.4 °C 29.94in /  1013.8hPa WNW 0.8mph /  1.3km/h 2mph /  3.2km/h 58% 0.00in /  0mm 0 W/m2
22:04 75.2 °F /  24 °C 59.5 °F /  15.3 °C 29.94in /  1013.8hPa WNW 0.9mph /  1.4km/h 1.1mph /  1.8km/h 58.3% 0.00in /  0mm 0 W/m2
22:09 74.9 °F /  23.8 °C 59.6 °F /  15.3 °C 29.94in /  1013.8hPa WNW 2.2mph /  3.5km/h 2.2mph /  3.5km/h 59.1% 0.00in /  0mm 0 W/m2
22:14 74.3 °F /  23.5 °C 59.5 °F /  15.3 °C 29.94in /  1013.8hPa West 0.6mph /  1km/h 3mph /  4.8km/h 60% 0.00in /  0mm 0 W/m2
22:19 73.9 °F /  23.3 °C 60.1 °F /  15.6 °C 29.94in /  1013.8hPa West 0.4mph /  0.6km/h 1mph /  1.6km/h 61.9% 0.00in /  0mm 0 W/m2
22:24 73.7 °F /  23.2 °C 59.8 °F /  15.4 °C 29.94in /  1013.8hPa South 0.5mph /  0.8km/h 1mph /  1.6km/h 62% 0.00in /  0mm 0 W/m2
22:29 73.3 °F /  22.9 °C 59.2 °F /  15.1 °C 29.94in /  1013.8hPa SSW 2.5mph /  4km/h 1.8mph /  2.9km/h 61.4% 0.00in /  0mm 0 W/m2
22:34 73.1 °F /  22.8 °C 59.3 °F /  15.2 °C 29.94in /  1013.8hPa SW 2.7mph /  4.3km/h 1.8mph /  2.9km/h 62% 0.00in /  0mm 0 W/m2
22:39 73 °F /  22.8 °C 59.2 °F /  15.1 °C 29.94in /  1013.8hPa South 2.3mph /  3.7km/h 3mph /  4.8km/h 62% 0.00in /  0mm 0 W/m2
22:44 72.9 °F /  22.7 °C 59.3 °F /  15.2 °C 29.94in /  1013.8hPa South 2.8mph /  4.5km/h 2.7mph /  4.3km/h 62.4% 0.00in /  0mm 0 W/m2
22:49 72.9 °F /  22.7 °C 59.1 °F /  15.1 °C 29.94in /  1013.8hPa South 3.1mph /  5km/h 4mph /  6.4km/h 62% 0.00in /  0mm 0 W/m2
22:54 72.7 °F /  22.6 °C 58.9 °F /  14.9 °C 29.94in /  1013.8hPa SSW 2mph /  3.2km/h 3mph /  4.8km/h 62% 0.00in /  0mm 0 W/m2
22:59 72.7 °F /  22.6 °C 58.9 °F /  14.9 °C 29.94in /  1013.8hPa SSW 3.6mph /  5.8km/h 2.7mph /  4.3km/h 62% 0.00in /  0mm 0 W/m2
23:04 72.5 °F /  22.5 °C 58.7 °F /  14.8 °C 29.94in /  1013.8hPa South 3.2mph /  5.1km/h 4mph /  6.4km/h 62% 0.00in /  0mm 0 W/m2
23:09 72.5 °F /  22.5 °C 58.7 °F /  14.8 °C 29.94in /  1013.8hPa South 3.1mph /  5km/h 4mph /  6.4km/h 62% 0.00in /  0mm 0 W/m2
23:14 72.5 °F /  22.5 °C 58.7 °F /  14.8 °C 29.94in /  1013.8hPa SSE 2mph /  3.2km/h 4mph /  6.4km/h 62% 0.00in /  0mm 0 W/m2
23:19 72.6 °F /  22.6 °C 58.8 °F /  14.9 °C 29.95in /  1014.1hPa NE 2mph /  3.2km/h 2mph /  3.2km/h 62% 0.00in /  0mm 0 W/m2
23:24 72.7 °F /  22.6 °C 58.9 °F /  14.9 °C 29.95in /  1014.1hPa NNE 1.6mph /  2.6km/h 2.2mph /  3.5km/h 62% 0.00in /  0mm 0 W/m2
23:29 72.9 °F /  22.7 °C 59.8 °F /  15.4 °C 29.95in /  1014.1hPa NE 7mph /  11.3km/h 4mph /  6.4km/h 63.5% 0.00in /  0mm 0 W/m2
23:34 73.4 °F /  23 °C 60.7 °F /  15.9 °C 29.95in /  1014.1hPa ESE 5.8mph /  9.3km/h 7mph /  11.3km/h 64.4% 0.00in /  0mm 0 W/m2
23:39 73.5 °F /  23.1 °C 60.5 °F /  15.8 °C 29.95in /  1014.1hPa SE 3.3mph /  5.3km/h 6mph /  9.7km/h 64% 0.00in /  0mm 0 W/m2
23:44 73.2 °F /  22.9 °C 60 °F /  15.6 °C 29.95in /  1014.1hPa SW 3.5mph /  5.6km/h 4mph /  6.4km/h 63.5% 0.00in /  0mm 0 W/m2
23:49 72.8 °F /  22.7 °C 59.9 °F /  15.5 °C 29.95in /  1014.1hPa West 3.7mph /  6km/h 4mph /  6.4km/h 64% 0.00in /  0mm 0 W/m2
23:54 72.7 °F /  22.6 °C 59.5 °F /  15.3 °C 29.94in /  1013.8hPa West 3.9mph /  6.3km/h 4mph /  6.4km/h 63.3% 0.00in /  0mm 0 W/m2
23:59 72.7 °F /  22.6 °C 59.6 °F /  15.3 °C 29.94in /  1013.8hPa West 4.8mph /  7.7km/h 5mph /  8km/h 63.5% 0.00in /  0mm 0 W/m2
Knjazevac, Serbia
Compliments of Weather Underground - 4 mb